createdAt,value
2022-10-08T00:01:02.608Z,22.90
2022-10-08T00:03:31.045Z,22.80
2022-10-08T00:06:02.174Z,23.33
2022-10-08T00:08:29.904Z,20.87
2022-10-08T00:10:57.955Z,22.40
2022-10-08T00:13:25.614Z,20.87
2022-10-08T00:15:53.405Z,20.60
2022-10-08T00:18:20.961Z,22.40
2022-10-08T00:20:47.862Z,21.50
2022-10-08T00:23:14.935Z,23.00
2022-10-08T00:25:42.610Z,23.27
2022-10-08T00:28:10.479Z,22.37
2022-10-08T00:30:38.271Z,22.53
2022-10-08T00:33:05.102Z,23.63
2022-10-08T00:35:36.601Z,20.07
2022-10-08T00:38:03.474Z,23.57
2022-10-08T00:40:30.275Z,20.33
2022-10-08T00:42:59.540Z,23.00
2022-10-08T00:45:26.363Z,19.93
2022-10-08T00:47:56.436Z,20.90
2022-10-08T00:50:30.919Z,24.27
2022-10-08T00:52:59.359Z,21.57
2022-10-08T00:55:29.390Z,20.20
2022-10-08T00:58:01.797Z,24.53
2022-10-08T01:00:29.376Z,20.23
2022-10-08T01:02:56.369Z,17.97
2022-10-08T01:05:41.888Z,19.37
2022-10-08T01:08:28.998Z,21.70
2022-10-08T01:11:04.816Z,19.63
2022-10-08T01:13:31.725Z,19.23
2022-10-08T01:16:21.762Z,19.63
2022-10-08T01:19:02.356Z,20.20
2022-10-08T01:21:47.713Z,18.17
2022-10-08T01:24:53.173Z,18.57
2022-10-08T01:27:26.007Z,19.53
2022-10-08T01:29:53.388Z,17.73
2022-10-08T01:32:22.489Z,17.10
2022-10-08T01:34:49.299Z,16.23
2022-10-08T01:37:25.181Z,16.70
2022-10-08T01:39:53.707Z,21.20
2022-10-08T01:42:23.531Z,19.47
2022-10-08T01:44:52.763Z,16.23
2022-10-08T01:47:21.643Z,17.30
2022-10-08T01:50:03.387Z,16.30
2022-10-08T01:52:32.657Z,18.03
2022-10-08T01:55:02.066Z,20.50
2022-10-08T01:57:29.430Z,17.43
2022-10-08T02:00:02.177Z,19.07
2022-10-08T02:02:39.253Z,15.40
2022-10-08T02:05:06.676Z,16.27
2022-10-08T02:07:36.086Z,18.93
2022-10-08T02:10:05.844Z,19.97
2022-10-08T02:12:32.975Z,15.73
2022-10-08T02:15:00.183Z,17.43
2022-10-08T02:17:45.127Z,17.47
2022-10-08T02:20:18.593Z,18.40
2022-10-08T02:22:51.770Z,22.20
2022-10-08T02:25:33.605Z,17.10
2022-10-08T02:28:00.918Z,23.13
2022-10-08T02:30:31.092Z,20.77
2022-10-08T02:33:03.440Z,15.07
2022-10-08T02:35:33.193Z,15.77
2022-10-08T02:38:01.521Z,16.93
2022-10-08T02:40:30.614Z,15.97
2022-10-08T02:43:00.257Z,19.23
2022-10-08T02:45:31.884Z,20.17
2022-10-08T02:48:05.726Z,17.57
2022-10-08T02:50:33.280Z,19.37
2022-10-08T02:53:00.370Z,20.40
2022-10-08T02:55:33.583Z,17.33
2022-10-08T02:58:03.217Z,15.77
2022-10-08T03:00:34.958Z,18.83
2022-10-08T03:03:15.822Z,18.00
2022-10-08T03:05:43.029Z,16.73
2022-10-08T03:08:12.429Z,16.43
2022-10-08T03:10:40.433Z,18.23
2022-10-08T03:13:07.777Z,20.53
2022-10-08T03:15:35.458Z,17.03
2022-10-08T03:18:04.063Z,18.33
2022-10-08T03:20:31.171Z,20.33
2022-10-08T03:23:01.957Z,18.37
2022-10-08T03:25:28.877Z,17.27
2022-10-08T03:27:55.678Z,23.80
2022-10-08T03:30:22.593Z,15.53
2022-10-08T03:32:49.685Z,15.10
2022-10-08T03:35:16.651Z,17.80
2022-10-08T03:37:43.705Z,17.50
2022-10-08T03:40:10.871Z,18.60
2022-10-08T03:42:38.187Z,15.93
2022-10-08T03:45:05.661Z,24.73
2022-10-08T03:47:32.555Z,16.50
2022-10-08T03:49:59.363Z,17.30
2022-10-08T03:52:26.299Z,19.70
2022-10-08T03:54:53.753Z,16.63
2022-10-08T03:57:20.539Z,19.30
2022-10-08T03:59:47.490Z,15.33
2022-10-08T04:02:14.450Z,18.13
2022-10-08T04:04:41.246Z,15.70
2022-10-08T04:07:08.181Z,18.83
2022-10-08T04:09:34.955Z,15.23
2022-10-08T04:12:01.762Z,18.73
2022-10-08T04:14:28.634Z,18.03
2022-10-08T04:16:55.636Z,20.23
2022-10-08T04:19:22.381Z,17.43
2022-10-08T04:21:49.331Z,22.47
2022-10-08T04:24:16.079Z,17.40
2022-10-08T04:26:42.931Z,16.70
2022-10-08T04:29:12.699Z,19.00
2022-10-08T04:31:40.490Z,21.83
2022-10-08T04:34:07.246Z,18.40
2022-10-08T04:36:34.458Z,21.17
2022-10-08T04:39:01.207Z,19.17
2022-10-08T04:41:28.027Z,19.47
2022-10-08T04:43:58.252Z,14.77
2022-10-08T04:46:25.129Z,18.00
2022-10-08T04:48:53.051Z,19.57
2022-10-08T04:51:20.603Z,17.90
2022-10-08T04:53:47.765Z,16.53
2022-10-08T04:56:17.152Z,19.50
2022-10-08T04:58:44.231Z,14.27
2022-10-08T05:01:12.275Z,17.90
2022-10-08T05:03:39.937Z,21.57
2022-10-08T05:06:07.467Z,21.30
2022-10-08T05:08:34.568Z,18.63
2022-10-08T05:11:01.373Z,17.13
2022-10-08T05:13:28.448Z,13.60
2022-10-08T05:15:55.747Z,16.03
2022-10-08T05:18:23.125Z,17.30
2022-10-08T05:20:50.114Z,16.43
2022-10-08T05:23:16.946Z,14.77
2022-10-08T05:25:43.975Z,12.97
2022-10-08T05:28:10.782Z,14.10
2022-10-08T05:30:37.796Z,13.70
2022-10-08T05:33:04.603Z,17.67
2022-10-08T05:35:31.500Z,16.07
2022-10-08T05:37:58.382Z,16.87
2022-10-08T05:40:25.274Z,14.77
2022-10-08T05:42:52.671Z,18.33
2022-10-08T05:45:19.567Z,15.57
2022-10-08T05:47:47.393Z,12.67
2022-10-08T05:50:14.644Z,16.17
2022-10-08T05:52:41.695Z,13.10
2022-10-08T05:55:08.740Z,15.93
2022-10-08T05:57:35.584Z,12.63
2022-10-08T06:00:02.401Z,10.40
2022-10-08T06:02:38.417Z,12.40
2022-10-08T06:05:05.638Z,17.37
2022-10-08T06:07:32.474Z,12.47
2022-10-08T06:09:59.404Z,12.20
2022-10-08T06:12:26.149Z,14.80
2022-10-08T06:14:53.009Z,14.20
2022-10-08T06:17:19.800Z,12.97
2022-10-08T06:19:46.567Z,12.23
2022-10-08T06:22:13.502Z,10.70
2022-10-08T06:24:40.264Z,10.93
2022-10-08T06:27:07.155Z,10.23
2022-10-08T06:29:33.982Z,12.77
2022-10-08T06:32:00.815Z,9.40
2022-10-08T06:34:27.612Z,13.80
2022-10-08T06:36:54.455Z,9.90
2022-10-08T06:39:21.254Z,14.03
2022-10-08T06:41:48.237Z,15.43
2022-10-08T06:44:15.682Z,11.77
2022-10-08T06:46:42.860Z,11.20
2022-10-08T06:49:10.356Z,6.67
2022-10-08T06:51:37.236Z,12.67
2022-10-08T06:54:07.896Z,12.97
2022-10-08T06:56:36.390Z,14.37
2022-10-08T06:59:03.767Z,12.63
2022-10-08T07:01:33.795Z,11.60
2022-10-08T07:04:01.929Z,12.43
2022-10-08T07:06:28.994Z,18.87
2022-10-08T07:08:57.065Z,11.40
2022-10-08T07:11:24.334Z,15.50
2022-10-08T07:13:51.272Z,13.47
2022-10-08T07:16:21.124Z,11.70
2022-10-08T07:18:49.478Z,10.30
2022-10-08T07:21:17.022Z,13.03
2022-10-08T07:23:43.909Z,11.17
2022-10-08T07:26:12.500Z,9.50
2022-10-08T07:28:41.253Z,12.60
2022-10-08T07:31:11.835Z,13.03
2022-10-08T07:33:40.910Z,11.50
2022-10-08T07:36:08.918Z,12.70
2022-10-08T07:38:35.738Z,13.50
2022-10-08T07:41:02.632Z,12.07
2022-10-08T07:43:29.489Z,16.40
2022-10-08T07:45:56.599Z,14.57
2022-10-08T07:48:23.478Z,9.93
2022-10-08T07:50:50.379Z,15.20
2022-10-08T07:53:17.259Z,10.67
2022-10-08T07:55:44.420Z,12.67
2022-10-08T07:58:11.272Z,10.20
2022-10-08T08:00:38.953Z,8.73
2022-10-08T08:03:05.856Z,10.63
2022-10-08T08:05:35.717Z,13.10
2022-10-08T08:08:02.550Z,6.27
2022-10-08T08:10:29.309Z,11.93
2022-10-08T08:12:56.329Z,5.33
2022-10-08T08:15:26.084Z,8.97
2022-10-08T08:17:52.918Z,15.63
2022-10-08T08:20:19.778Z,12.27
2022-10-08T08:22:46.720Z,10.27
2022-10-08T08:25:13.833Z,10.17
2022-10-08T08:27:40.697Z,10.90
2022-10-08T08:30:07.816Z,12.53
2022-10-08T08:32:36.003Z,13.93
2022-10-08T08:35:02.839Z,13.43
2022-10-08T08:37:29.602Z,9.10
2022-10-08T08:39:56.447Z,6.27
2022-10-08T08:42:23.238Z,20.27
2022-10-08T08:44:56.318Z,15.43
2022-10-08T08:47:26.332Z,11.73
2022-10-08T08:50:04.506Z,16.40
2022-10-08T08:52:34.625Z,14.90
2022-10-08T08:55:01.648Z,16.03
2022-10-08T08:57:34.763Z,11.90
2022-10-08T09:00:15.058Z,17.33
2022-10-08T09:03:02.986Z,18.47
2022-10-08T09:05:31.859Z,15.67
2022-10-08T09:08:01.500Z,18.17
2022-10-08T09:10:48.632Z,16.47
2022-10-08T09:13:21.337Z,18.70
2022-10-08T09:15:48.304Z,16.63
2022-10-08T09:18:16.824Z,18.50
2022-10-08T09:20:44.185Z,19.50
2022-10-08T09:23:16.262Z,17.43
2022-10-08T09:25:44.370Z,27.67
2022-10-08T09:28:11.166Z,20.83
2022-10-08T09:30:42.297Z,18.80
2022-10-08T09:33:18.826Z,17.13
2022-10-08T09:35:49.552Z,18.03
2022-10-08T09:38:23.361Z,18.97
2022-10-08T09:41:29.024Z,17.57
2022-10-08T09:44:16.988Z,17.07
2022-10-08T09:46:44.606Z,22.47
2022-10-08T09:49:23.612Z,17.97
2022-10-08T09:51:50.726Z,19.83
2022-10-08T09:54:21.806Z,19.47
2022-10-08T09:56:53.546Z,20.03
2022-10-08T09:59:21.759Z,17.77
2022-10-08T10:01:48.794Z,21.77
2022-10-08T10:04:19.661Z,19.80
2022-10-08T10:06:48.460Z,20.17
2022-10-08T10:09:27.371Z,17.93
2022-10-08T10:11:57.388Z,18.73
2022-10-08T10:14:52.158Z,18.67
2022-10-08T10:17:27.851Z,24.63
2022-10-08T10:19:57.297Z,24.60
2022-10-08T10:22:26.927Z,25.70
2022-10-08T10:24:57.175Z,22.27
2022-10-08T10:27:28.234Z,25.97
2022-10-08T10:30:04.394Z,24.90
2022-10-08T10:32:35.028Z,23.77
2022-10-08T10:35:13.128Z,24.47
2022-10-08T10:37:44.980Z,21.30
2022-10-08T10:40:23.415Z,27.00
2022-10-08T10:42:57.998Z,24.47
2022-10-08T10:45:26.609Z,21.33
2022-10-08T10:47:54.085Z,22.67
2022-10-08T10:50:25.960Z,22.13
2022-10-08T10:53:05.672Z,20.50
2022-10-08T10:55:38.907Z,24.63
2022-10-08T10:58:08.586Z,19.30
2022-10-08T11:00:54.200Z,21.40
2022-10-08T11:03:24.271Z,22.57
2022-10-08T11:05:56.612Z,16.20
2022-10-08T11:08:25.603Z,20.53
2022-10-08T11:10:52.345Z,25.77
2022-10-08T11:13:22.379Z,19.37
2022-10-08T11:16:00.125Z,21.90
2022-10-08T11:18:47.205Z,17.63
2022-10-08T11:21:17.260Z,22.23
2022-10-08T11:23:50.072Z,28.37
2022-10-08T11:26:22.798Z,23.10
2022-10-08T11:28:56.346Z,22.53
2022-10-08T11:31:29.428Z,26.57
2022-10-08T11:33:56.664Z,18.00
2022-10-08T11:36:37.981Z,18.00
2022-10-08T11:39:16.204Z,20.23
2022-10-08T11:42:01.491Z,18.50
2022-10-08T11:44:29.782Z,23.17
2022-10-08T11:47:16.556Z,20.07
2022-10-08T11:49:47.869Z,18.17
2022-10-08T11:52:15.224Z,21.63
2022-10-08T11:54:42.764Z,26.17
2022-10-08T11:57:49.251Z,21.90
2022-10-08T12:00:32.508Z,21.80
2022-10-08T12:03:00.308Z,21.20
2022-10-08T12:05:27.293Z,21.97
2022-10-08T12:07:58.531Z,21.80
2022-10-08T12:10:27.617Z,25.63
2022-10-08T12:12:56.419Z,25.73
2022-10-08T12:15:23.232Z,17.50
2022-10-08T12:18:26.259Z,26.80
2022-10-08T12:21:20.759Z,23.53
2022-10-08T12:23:47.806Z,24.63
2022-10-08T12:26:15.684Z,19.37
2022-10-08T12:28:42.595Z,23.13
2022-10-08T12:31:40.271Z,26.67
2022-10-08T12:34:15.027Z,27.03
2022-10-08T12:36:45.520Z,28.30
2022-10-08T12:39:18.220Z,24.97
2022-10-08T12:41:51.175Z,21.13
2022-10-08T12:44:20.885Z,26.50
2022-10-08T12:46:52.653Z,26.77
2022-10-08T12:49:19.696Z,26.37
2022-10-08T12:51:58.484Z,24.27
2022-10-08T12:54:27.119Z,24.73
2022-10-08T12:56:54.091Z,22.13
2022-10-08T12:59:22.225Z,22.17
2022-10-08T13:01:51.313Z,25.33
2022-10-08T13:04:22.652Z,22.33
2022-10-08T13:06:51.106Z,24.77
2022-10-08T13:09:25.478Z,19.03
2022-10-08T13:11:57.208Z,22.17
2022-10-08T13:14:30.069Z,23.73
2022-10-08T13:16:58.184Z,23.67
2022-10-08T13:19:32.355Z,19.63
2022-10-08T13:22:00.604Z,22.20
2022-10-08T13:24:31.526Z,22.87
2022-10-08T13:26:58.462Z,23.47
2022-10-08T13:29:26.838Z,22.27
2022-10-08T13:31:56.883Z,33.17
2022-10-08T13:34:42.148Z,22.90
2022-10-08T13:37:10.657Z,23.60
2022-10-08T13:39:38.979Z,26.97
2022-10-08T13:42:08.007Z,19.43
2022-10-08T13:44:37.004Z,21.90
2022-10-08T13:47:04.182Z,23.60
2022-10-08T13:49:32.736Z,22.97
2022-10-08T13:52:00.618Z,26.87
2022-10-08T13:54:32.378Z,24.57
2022-10-08T13:56:59.284Z,19.47
2022-10-08T13:59:30.439Z,21.33
2022-10-08T14:01:57.771Z,25.20
2022-10-08T14:04:24.692Z,20.30
2022-10-08T14:06:53.690Z,19.63
2022-10-08T14:09:24.227Z,19.63
2022-10-08T14:11:56.126Z,20.63
2022-10-08T14:14:24.189Z,25.23
2022-10-08T14:16:51.442Z,21.73
2022-10-08T14:19:18.490Z,20.07
2022-10-08T14:21:45.254Z,20.10
2022-10-08T14:24:12.637Z,22.20
2022-10-08T14:26:39.462Z,24.30
2022-10-08T14:29:06.417Z,19.67
2022-10-08T14:31:33.382Z,16.97
2022-10-08T14:34:00.682Z,20.20
2022-10-08T14:36:31.931Z,24.93
2022-10-08T14:38:58.792Z,19.33
2022-10-08T14:41:25.856Z,22.27
2022-10-08T14:43:52.911Z,43.13
2022-10-08T14:46:19.875Z,19.53
2022-10-08T14:48:46.836Z,21.73
2022-10-08T14:51:13.695Z,20.80
2022-10-08T14:53:41.675Z,22.20
2022-10-08T14:56:12.400Z,21.90
2022-10-08T14:58:40.409Z,20.97
2022-10-08T15:01:07.301Z,24.90
2022-10-08T15:03:34.383Z,23.57
2022-10-08T15:06:01.389Z,24.40
2022-10-08T15:08:28.742Z,25.27
2022-10-08T15:10:55.529Z,22.60
2022-10-08T15:13:22.393Z,22.40
2022-10-08T15:15:49.238Z,25.27
2022-10-08T15:18:16.052Z,22.77
2022-10-08T15:20:43.235Z,20.83
2022-10-08T15:23:10.652Z,22.00
2022-10-08T15:25:37.593Z,21.83
2022-10-08T15:28:04.776Z,22.87
2022-10-08T15:30:31.891Z,21.80
2022-10-08T15:33:02.729Z,28.57
2022-10-08T15:35:29.617Z,20.90
2022-10-08T15:37:56.631Z,23.90
2022-10-08T15:40:23.583Z,18.47
2022-10-08T15:42:51.265Z,25.13
2022-10-08T15:45:18.069Z,31.40
2022-10-08T15:47:44.865Z,24.70
2022-10-08T15:50:11.796Z,26.97
2022-10-08T15:52:40.991Z,25.07
2022-10-08T15:55:10.912Z,31.83
2022-10-08T15:57:37.693Z,27.43
2022-10-08T16:00:04.761Z,24.43
2022-10-08T16:02:38.809Z,26.10
2022-10-08T16:05:05.857Z,29.00
2022-10-08T16:07:32.604Z,28.03
2022-10-08T16:09:59.506Z,47.73
2022-10-08T16:12:26.316Z,46.60
2022-10-08T16:14:53.092Z,33.40
2022-10-08T16:17:19.930Z,29.30
2022-10-08T16:19:46.825Z,27.43
2022-10-08T16:22:14.048Z,23.43
2022-10-08T16:24:40.879Z,22.93
2022-10-08T16:27:07.691Z,35.07
2022-10-08T16:29:34.559Z,31.80
2022-10-08T16:32:01.484Z,32.83
2022-10-08T16:34:28.864Z,32.27
2022-10-08T16:36:55.821Z,28.80
2022-10-08T16:39:24.519Z,29.73
2022-10-08T16:41:51.691Z,27.47
2022-10-08T16:44:19.426Z,26.63
2022-10-08T16:46:50.524Z,27.50
2022-10-08T16:49:23.784Z,46.60
2022-10-08T16:51:52.385Z,76.57
2022-10-08T16:54:19.833Z,27.57
2022-10-08T16:56:46.989Z,30.53
2022-10-08T16:59:15.966Z,36.87
2022-10-08T17:01:44.330Z,32.77
2022-10-08T17:04:11.691Z,59.67
2022-10-08T17:06:38.702Z,32.63
2022-10-08T17:09:05.821Z,40.93
2022-10-08T17:11:33.427Z,37.17
2022-10-08T17:14:00.788Z,38.77
2022-10-08T17:16:28.636Z,38.77
2022-10-08T17:18:56.583Z,40.40
2022-10-08T17:21:23.738Z,37.23
2022-10-08T17:23:50.558Z,38.93
2022-10-08T17:26:18.571Z,41.07
2022-10-08T17:28:46.295Z,50.53
2022-10-08T17:31:14.540Z,38.03
2022-10-08T17:33:41.835Z,35.60
2022-10-08T17:36:08.767Z,37.20
2022-10-08T17:38:36.424Z,33.27
2022-10-08T17:41:10.596Z,38.63
2022-10-08T17:43:37.462Z,39.87
2022-10-08T17:46:18.125Z,42.00
2022-10-08T17:48:45.081Z,31.20
2022-10-08T17:51:12.534Z,37.20
2022-10-08T17:53:39.447Z,40.23
2022-10-08T17:56:07.957Z,33.40
2022-10-08T17:58:35.041Z,37.10
2022-10-08T18:01:07.212Z,44.67
2022-10-08T18:03:34.466Z,41.17
2022-10-08T18:06:01.479Z,39.33
2022-10-08T18:08:28.466Z,39.47
2022-10-08T18:10:55.217Z,41.67
2022-10-08T18:13:22.524Z,42.80
2022-10-08T18:15:49.347Z,40.00
2022-10-08T18:18:16.241Z,36.80
2022-10-08T18:20:52.063Z,33.23
2022-10-08T18:23:19.362Z,30.40
2022-10-08T18:25:49.283Z,36.07
2022-10-08T18:28:19.879Z,40.70
2022-10-08T18:30:47.164Z,36.97
2022-10-08T18:33:14.513Z,32.37
2022-10-08T18:35:41.492Z,31.40
2022-10-08T18:38:08.230Z,32.77
2022-10-08T18:40:35.063Z,30.17
2022-10-08T18:43:02.136Z,30.40
2022-10-08T18:45:29.052Z,26.97
2022-10-08T18:47:55.834Z,26.50
2022-10-08T18:50:22.804Z,28.53
2022-10-08T18:52:50.064Z,23.30
2022-10-08T18:55:17.346Z,32.03
2022-10-08T18:57:44.478Z,20.37
2022-10-08T19:00:11.649Z,22.43
2022-10-08T19:02:38.633Z,21.80
2022-10-08T19:05:05.744Z,20.77
2022-10-08T19:07:32.585Z,16.17
2022-10-08T19:09:59.410Z,21.30
2022-10-08T19:12:26.258Z,19.67
2022-10-08T19:14:53.143Z,20.10
2022-10-08T19:17:19.979Z,18.33
2022-10-08T19:19:46.833Z,21.23
2022-10-08T19:22:13.652Z,21.90
2022-10-08T19:24:41.240Z,26.53
2022-10-08T19:27:08.176Z,22.37
2022-10-08T19:29:36.179Z,25.77
2022-10-08T19:32:03.611Z,22.40
2022-10-08T19:34:30.653Z,26.73
2022-10-08T19:36:57.554Z,21.63
2022-10-08T19:39:28.738Z,21.27
2022-10-08T19:41:55.631Z,23.80
2022-10-08T19:44:22.453Z,19.37
2022-10-08T19:46:49.481Z,29.30
2022-10-08T19:49:16.359Z,22.17
2022-10-08T19:51:43.236Z,20.73
2022-10-08T19:54:11.035Z,23.93
2022-10-08T19:56:38.085Z,24.07
2022-10-08T19:59:05.343Z,22.10
2022-10-08T20:01:34.127Z,20.97
2022-10-08T20:04:01.611Z,26.03
2022-10-08T20:06:29.905Z,23.07
2022-10-08T20:08:58.441Z,29.00
2022-10-08T20:11:25.656Z,26.43
2022-10-08T20:13:53.173Z,28.37
2022-10-08T20:16:21.731Z,25.07
2022-10-08T20:18:49.777Z,24.33
2022-10-08T20:21:16.654Z,16.77
2022-10-08T20:23:43.553Z,18.53
2022-10-08T20:26:15.033Z,19.47
2022-10-08T20:28:42.733Z,23.87
2022-10-08T20:31:12.245Z,16.50
2022-10-08T20:33:40.881Z,18.30
2022-10-08T20:36:12.015Z,19.57
2022-10-08T20:38:39.289Z,19.87
2022-10-08T20:41:06.478Z,17.47
2022-10-08T20:43:34.603Z,12.60
2022-10-08T20:46:06.130Z,16.93
2022-10-08T20:48:33.807Z,13.20
2022-10-08T20:51:01.166Z,11.67
2022-10-08T20:53:28.011Z,10.97
2022-10-08T20:55:54.814Z,14.60
2022-10-08T20:58:21.823Z,11.97
2022-10-08T21:00:48.784Z,10.80
2022-10-08T21:03:15.619Z,14.23
2022-10-08T21:05:43.312Z,11.97
2022-10-08T21:08:10.200Z,13.70
2022-10-08T21:10:37.555Z,12.87
2022-10-08T21:13:04.441Z,11.17
2022-10-08T21:15:31.423Z,13.23
2022-10-08T21:17:58.177Z,11.40
2022-10-08T21:20:25.057Z,9.17
2022-10-08T21:22:52.663Z,10.27
2022-10-08T21:25:19.531Z,10.07
2022-10-08T21:27:46.388Z,10.53
2022-10-08T21:30:13.944Z,12.00
2022-10-08T21:32:40.812Z,11.40
2022-10-08T21:35:07.807Z,11.37
2022-10-08T21:37:34.619Z,9.97
2022-10-08T21:40:01.494Z,11.73
2022-10-08T21:42:28.353Z,7.40
2022-10-08T21:44:55.074Z,8.50
2022-10-08T21:47:22.067Z,8.73
2022-10-08T21:49:49.579Z,7.50
2022-10-08T21:52:16.430Z,5.03
2022-10-08T21:54:43.240Z,9.17
2022-10-08T21:57:12.228Z,6.90
2022-10-08T21:59:42.336Z,8.37
2022-10-08T22:02:09.414Z,7.40
2022-10-08T22:04:36.270Z,9.23
2022-10-08T22:07:04.809Z,8.63
2022-10-08T22:09:32.938Z,7.97
2022-10-08T22:12:00.122Z,8.07
2022-10-08T22:14:27.041Z,5.10
2022-10-08T22:16:54.073Z,7.20
2022-10-08T22:19:21.357Z,7.87
2022-10-08T22:21:48.293Z,5.43
2022-10-08T22:24:15.197Z,9.13
2022-10-08T22:26:43.489Z,5.50
2022-10-08T22:29:10.605Z,5.63
2022-10-08T22:31:37.610Z,12.13
2022-10-08T22:34:04.622Z,7.47
2022-10-08T22:36:32.935Z,7.57
2022-10-08T22:38:59.973Z,7.87
2022-10-08T22:41:28.240Z,9.47
2022-10-08T22:43:55.329Z,5.50
2022-10-08T22:46:26.934Z,6.60
2022-10-08T22:48:57.520Z,6.07
2022-10-08T22:51:24.874Z,11.70
2022-10-08T22:53:51.751Z,8.73
2022-10-08T22:56:20.072Z,9.37
2022-10-08T22:58:47.449Z,10.07
2022-10-08T23:01:16.311Z,11.07
2022-10-08T23:03:43.301Z,8.07
2022-10-08T23:06:17.740Z,8.20
2022-10-08T23:08:45.211Z,5.70
2022-10-08T23:11:12.112Z,9.30
2022-10-08T23:13:39.448Z,7.67
2022-10-08T23:16:10.300Z,8.57
2022-10-08T23:18:38.384Z,7.33
2022-10-08T23:21:06.431Z,10.23
2022-10-08T23:23:33.758Z,8.70
2022-10-08T23:26:01.766Z,9.60
2022-10-08T23:28:29.073Z,3.60
2022-10-08T23:31:02.881Z,8.37
2022-10-08T23:33:29.673Z,9.13
2022-10-08T23:35:56.668Z,9.27
2022-10-08T23:38:23.629Z,6.10
2022-10-08T23:40:50.880Z,7.57
2022-10-08T23:43:17.744Z,8.97
2022-10-08T23:45:44.825Z,5.90
2022-10-08T23:48:11.766Z,7.00
2022-10-08T23:50:38.998Z,9.50
2022-10-08T23:53:06.017Z,6.60
2022-10-08T23:55:32.853Z,6.97
2022-10-08T23:57:59.572Z,10.27
